sensor_id;sensor_type;location;lat;lon;timestamp;pressure;altitude;pressure_sealevel;temperature;humidity
61898;BME280;47850;50.274;18.908;2022-12-20T00:01:08;99083.95;;;-1.90;84.68
61898;BME280;47850;50.274;18.908;2022-12-20T00:03:34;99078.64;;;-1.89;84.66
61898;BME280;47850;50.274;18.908;2022-12-20T00:05:59;99079.91;;;-1.88;84.74
61898;BME280;47850;50.274;18.908;2022-12-20T00:08:25;99077.83;;;-1.86;84.63
61898;BME280;47850;50.274;18.908;2022-12-20T00:10:50;99075.52;;;-1.85;84.79
61898;BME280;47850;50.274;18.908;2022-12-20T00:13:16;99071.55;;;-1.83;84.78
61898;BME280;47850;50.274;18.908;2022-12-20T00:15:41;99066.86;;;-1.82;84.76
61898;BME280;47850;50.274;18.908;2022-12-20T00:18:07;99062.77;;;-1.81;84.97
61898;BME280;47850;50.274;18.908;2022-12-20T00:20:32;99068.23;;;-1.79;84.96
61898;BME280;47850;50.274;18.908;2022-12-20T00:22:58;99064.59;;;-1.77;84.91
61898;BME280;47850;50.274;18.908;2022-12-20T00:25:23;99065.16;;;-1.74;84.82
61898;BME280;47850;50.274;18.908;2022-12-20T00:27:49;99064.77;;;-1.73;84.79
61898;BME280;47850;50.274;18.908;2022-12-20T00:30:15;99062.50;;;-1.71;84.89
61898;BME280;47850;50.274;18.908;2022-12-20T00:32:42;99061.55;;;-1.69;84.79
61898;BME280;47850;50.274;18.908;2022-12-20T00:35:08;99062.27;;;-1.67;84.84
61898;BME280;47850;50.274;18.908;2022-12-20T00:37:34;99056.80;;;-1.64;84.96
61898;BME280;47850;50.274;18.908;2022-12-20T00:39:59;99055.45;;;-1.63;85.00
61898;BME280;47850;50.274;18.908;2022-12-20T00:42:25;99057.95;;;-1.61;84.99
61898;BME280;47850;50.274;18.908;2022-12-20T00:44:50;99059.66;;;-1.61;85.17
61898;BME280;47850;50.274;18.908;2022-12-20T00:47:15;99055.13;;;-1.59;85.21
61898;BME280;47850;50.274;18.908;2022-12-20T00:49:42;99051.66;;;-1.58;85.33
61898;BME280;47850;50.274;18.908;2022-12-20T00:52:07;99043.14;;;-1.57;85.44
61898;BME280;47850;50.274;18.908;2022-12-20T00:54:33;99032.52;;;-1.58;85.63
61898;BME280;47850;50.274;18.908;2022-12-20T00:56:58;99025.61;;;-1.58;85.95
61898;BME280;47850;50.274;18.908;2022-12-20T00:59:23;99029.32;;;-1.58;86.06
61898;BME280;47850;50.274;18.908;2022-12-20T01:01:50;99032.70;;;-1.58;86.33
61898;BME280;47850;50.274;18.908;2022-12-20T01:04:15;99048.86;;;-1.59;86.72
61898;BME280;47850;50.274;18.908;2022-12-20T01:06:41;99060.55;;;-1.60;87.08
61898;BME280;47850;50.274;18.908;2022-12-20T01:09:06;99062.76;;;-1.62;87.30
61898;BME280;47850;50.274;18.908;2022-12-20T01:11:34;99055.81;;;-1.63;87.59
61898;BME280;47850;50.274;18.908;2022-12-20T01:14:02;99049.06;;;-1.64;88.01
61898;BME280;47850;50.274;18.908;2022-12-20T01:16:32;99050.28;;;-1.65;88.28
61898;BME280;47850;50.274;18.908;2022-12-20T01:18:59;99047.85;;;-1.66;88.71
61898;BME280;47850;50.274;18.908;2022-12-20T01:21:25;99045.14;;;-1.65;88.72
61898;BME280;47850;50.274;18.908;2022-12-20T01:23:52;99050.15;;;-1.64;88.97
61898;BME280;47850;50.274;18.908;2022-12-20T01:26:20;99051.77;;;-1.62;88.94
61898;BME280;47850;50.274;18.908;2022-12-20T01:28:50;99051.10;;;-1.60;88.76
61898;BME280;47850;50.274;18.908;2022-12-20T01:31:20;99050.33;;;-1.56;88.92
61898;BME280;47850;50.274;18.908;2022-12-20T01:33:47;99049.34;;;-1.55;88.83
61898;BME280;47850;50.274;18.908;2022-12-20T01:36:16;99044.18;;;-1.54;88.88
61898;BME280;47850;50.274;18.908;2022-12-20T01:38:41;99036.75;;;-1.53;88.75
61898;BME280;47850;50.274;18.908;2022-12-20T01:41:07;99024.33;;;-1.52;88.69
61898;BME280;47850;50.274;18.908;2022-12-20T01:44:47;99009.46;;;-1.52;88.57
61898;BME280;47850;50.274;18.908;2022-12-20T01:46:51;99016.26;;;-1.52;88.49
61898;BME280;47850;50.274;18.908;2022-12-20T01:52:29;99006.62;;;-1.50;88.42
61898;BME280;47850;50.274;18.908;2022-12-20T01:55:12;98997.56;;;-1.51;88.42
61898;BME280;47850;50.274;18.908;2022-12-20T01:57:50;99003.45;;;-1.51;88.42
61898;BME280;47850;50.274;18.908;2022-12-20T02:00:17;99003.52;;;-1.50;88.35
61898;BME280;47850;50.274;18.908;2022-12-20T02:02:48;99003.46;;;-1.50;88.20
61898;BME280;47850;50.274;18.908;2022-12-20T02:05:16;98999.67;;;-1.49;88.33
61898;BME280;47850;50.274;18.908;2022-12-20T02:07:45;99009.06;;;-1.49;88.18
61898;BME280;47850;50.274;18.908;2022-12-20T02:10:12;99008.33;;;-1.49;88.30
61898;BME280;47850;50.274;18.908;2022-12-20T02:12:44;99017.46;;;-1.48;88.37
61898;BME280;47850;50.274;18.908;2022-12-20T02:17:57;99022.02;;;-1.47;88.54
61898;BME280;47850;50.274;18.908;2022-12-20T02:28:39;98990.66;;;-1.49;88.86
61898;BME280;47850;50.274;18.908;2022-12-20T02:31:12;98986.95;;;-1.53;88.86
61898;BME280;47850;50.274;18.908;2022-12-20T02:33:45;98980.28;;;-1.56;88.99
61898;BME280;47850;50.274;18.908;2022-12-20T02:36:16;98969.11;;;-1.59;89.05
61898;BME280;47850;50.274;18.908;2022-12-20T02:38:43;98985.23;;;-1.62;88.97
61898;BME280;47850;50.274;18.908;2022-12-20T02:43:45;98997.48;;;-1.65;88.89
61898;BME280;47850;50.274;18.908;2022-12-20T02:46:33;99002.98;;;-1.67;88.95
61898;BME280;47850;50.274;18.908;2022-12-20T02:49:04;98996.48;;;-1.68;89.07
61898;BME280;47850;50.274;18.908;2022-12-20T02:51:32;98992.35;;;-1.70;89.01
61898;BME280;47850;50.274;18.908;2022-12-20T02:53:58;98990.27;;;-1.72;89.29
61898;BME280;47850;50.274;18.908;2022-12-20T03:01:33;98980.43;;;-1.77;89.27
61898;BME280;47850;50.274;18.908;2022-12-20T03:04:01;98975.86;;;-1.78;89.18
61898;BME280;47850;50.274;18.908;2022-12-20T03:06:28;98972.33;;;-1.78;89.22
61898;BME280;47850;50.274;18.908;2022-12-20T03:08:55;98980.07;;;-1.78;89.09
61898;BME280;47850;50.274;18.908;2022-12-20T03:11:21;98980.69;;;-1.79;88.97
61898;BME280;47850;50.274;18.908;2022-12-20T03:13:46;98969.70;;;-1.79;88.97
61898;BME280;47850;50.274;18.908;2022-12-20T03:16:12;98969.17;;;-1.80;88.89
61898;BME280;47850;50.274;18.908;2022-12-20T03:18:38;98978.92;;;-1.80;88.86
61898;BME280;47850;50.274;18.908;2022-12-20T03:21:04;98981.99;;;-1.82;88.68
61898;BME280;47850;50.274;18.908;2022-12-20T03:23:29;98976.36;;;-1.82;88.64
61898;BME280;47850;50.274;18.908;2022-12-20T03:25:55;98969.04;;;-1.83;88.67
61898;BME280;47850;50.274;18.908;2022-12-20T03:28:20;98968.80;;;-1.84;88.61
61898;BME280;47850;50.274;18.908;2022-12-20T03:30:46;98972.10;;;-1.86;88.77
61898;BME280;47850;50.274;18.908;2022-12-20T03:33:12;98962.39;;;-1.88;88.69
61898;BME280;47850;50.274;18.908;2022-12-20T03:35:37;98957.50;;;-1.89;88.81
61898;BME280;47850;50.274;18.908;2022-12-20T03:38:03;98958.62;;;-1.90;88.79
61898;BME280;47850;50.274;18.908;2022-12-20T03:40:28;98969.98;;;-1.91;88.84
61898;BME280;47850;50.274;18.908;2022-12-20T03:42:53;98965.01;;;-1.93;89.02
61898;BME280;47850;50.274;18.908;2022-12-20T03:45:19;98958.06;;;-1.94;89.06
61898;BME280;47850;50.274;18.908;2022-12-20T03:47:44;98954.25;;;-1.95;88.93
61898;BME280;47850;50.274;18.908;2022-12-20T03:50:10;98950.02;;;-1.95;89.05
61898;BME280;47850;50.274;18.908;2022-12-20T03:52:36;98959.77;;;-1.96;88.98
61898;BME280;47850;50.274;18.908;2022-12-20T03:55:02;98954.63;;;-1.95;89.00
61898;BME280;47850;50.274;18.908;2022-12-20T03:57:28;98957.30;;;-1.96;89.04
61898;BME280;47850;50.274;18.908;2022-12-20T03:59:53;98952.74;;;-1.95;88.97
61898;BME280;47850;50.274;18.908;2022-12-20T04:02:19;98947.59;;;-1.94;88.88
61898;BME280;47850;50.274;18.908;2022-12-20T04:04:46;98950.75;;;-1.94;88.91
61898;BME280;47850;50.274;18.908;2022-12-20T04:07:12;98953.26;;;-1.94;89.06
61898;BME280;47850;50.274;18.908;2022-12-20T04:09:37;98959.98;;;-1.93;88.94
61898;BME280;47850;50.274;18.908;2022-12-20T04:12:03;98954.42;;;-1.91;88.93
61898;BME280;47850;50.274;18.908;2022-12-20T04:14:29;98955.45;;;-1.91;89.03
61898;BME280;47850;50.274;18.908;2022-12-20T04:16:54;98951.10;;;-1.91;88.98
61898;BME280;47850;50.274;18.908;2022-12-20T04:19:20;98949.81;;;-1.91;89.02
61898;BME280;47850;50.274;18.908;2022-12-20T04:21:45;98947.70;;;-1.91;89.05
61898;BME280;47850;50.274;18.908;2022-12-20T04:24:11;98953.35;;;-1.91;89.09
61898;BME280;47850;50.274;18.908;2022-12-20T04:26:36;98959.40;;;-1.91;89.04
61898;BME280;47850;50.274;18.908;2022-12-20T04:29:03;98967.50;;;-1.90;89.07
61898;BME280;47850;50.274;18.908;2022-12-20T04:31:28;98966.83;;;-1.89;89.07
61898;BME280;47850;50.274;18.908;2022-12-20T04:33:54;98965.60;;;-1.88;88.91
61898;BME280;47850;50.274;18.908;2022-12-20T04:36:19;98968.49;;;-1.87;89.17
61898;BME280;47850;50.274;18.908;2022-12-20T04:38:45;98971.75;;;-1.87;89.03
61898;BME280;47850;50.274;18.908;2022-12-20T04:41:10;98971.26;;;-1.86;89.03
61898;BME280;47850;50.274;18.908;2022-12-20T04:43:51;98972.23;;;-1.84;89.09
61898;BME280;47850;50.274;18.908;2022-12-20T04:46:17;98970.65;;;-1.83;89.02
61898;BME280;47850;50.274;18.908;2022-12-20T04:48:43;98963.90;;;-1.82;89.08
61898;BME280;47850;50.274;18.908;2022-12-20T04:51:08;98968.62;;;-1.82;89.25
61898;BME280;47850;50.274;18.908;2022-12-20T04:53:34;98974.71;;;-1.82;89.18
61898;BME280;47850;50.274;18.908;2022-12-20T04:56:20;98975.05;;;-1.81;89.33
61898;BME280;47850;50.274;18.908;2022-12-20T04:58:47;98969.02;;;-1.81;89.19
61898;BME280;47850;50.274;18.908;2022-12-20T05:01:13;98964.93;;;-1.80;89.34
61898;BME280;47850;50.274;18.908;2022-12-20T05:03:39;98960.66;;;-1.80;89.29
61898;BME280;47850;50.274;18.908;2022-12-20T05:06:05;98954.15;;;-1.78;89.32
61898;BME280;47850;50.274;18.908;2022-12-20T05:08:31;98951.93;;;-1.79;89.42
61898;BME280;47850;50.274;18.908;2022-12-20T05:10:56;98947.90;;;-1.79;89.47
61898;BME280;47850;50.274;18.908;2022-12-20T05:13:22;98951.04;;;-1.80;89.40
61898;BME280;47850;50.274;18.908;2022-12-20T05:15:52;98953.50;;;-1.80;89.52
61898;BME280;47850;50.274;18.908;2022-12-20T05:18:18;98951.36;;;-1.80;89.55
61898;BME280;47850;50.274;18.908;2022-12-20T05:20:44;98941.62;;;-1.81;89.53
61898;BME280;47850;50.274;18.908;2022-12-20T05:23:10;98936.34;;;-1.84;89.70
61898;BME280;47850;50.274;18.908;2022-12-20T05:25:54;98930.72;;;-1.85;89.71
61898;BME280;47850;50.274;18.908;2022-12-20T05:28:58;98944.25;;;-1.86;89.95
61898;BME280;47850;50.274;18.908;2022-12-20T05:31:23;98941.73;;;-1.87;90.06
61898;BME280;47850;50.274;18.908;2022-12-20T05:33:49;98937.20;;;-1.86;89.89
61898;BME280;47850;50.274;18.908;2022-12-20T05:36:14;98939.14;;;-1.87;90.02
61898;BME280;47850;50.274;18.908;2022-12-20T05:38:40;98942.13;;;-1.87;89.87
61898;BME280;47850;50.274;18.908;2022-12-20T05:41:05;98947.37;;;-1.88;89.87
61898;BME280;47850;50.274;18.908;2022-12-20T05:43:31;98943.55;;;-1.88;89.87
61898;BME280;47850;50.274;18.908;2022-12-20T05:45:57;98946.59;;;-1.88;90.01
61898;BME280;47850;50.274;18.908;2022-12-20T05:48:22;98941.66;;;-1.90;90.04
61898;BME280;47850;50.274;18.908;2022-12-20T05:50:48;98934.05;;;-1.89;90.01
61898;BME280;47850;50.274;18.908;2022-12-20T05:53:14;98931.77;;;-1.91;90.03
61898;BME280;47850;50.274;18.908;2022-12-20T05:55:44;98923.63;;;-1.91;90.17
61898;BME280;47850;50.274;18.908;2022-12-20T05:58:11;98919.39;;;-1.93;90.19
61898;BME280;47850;50.274;18.908;2022-12-20T06:00:40;98914.10;;;-1.93;90.34
61898;BME280;47850;50.274;18.908;2022-12-20T06:03:07;98912.62;;;-1.94;90.34
61898;BME280;47850;50.274;18.908;2022-12-20T06:05:35;98911.59;;;-1.94;90.46
61898;BME280;47850;50.274;18.908;2022-12-20T06:08:02;98908.11;;;-1.95;90.20
61898;BME280;47850;50.274;18.908;2022-12-20T06:10:28;98907.92;;;-1.96;90.43
61898;BME280;47850;50.274;18.908;2022-12-20T06:12:53;98908.66;;;-1.96;90.49
61898;BME280;47850;50.274;18.908;2022-12-20T06:15:19;98905.63;;;-1.97;90.47
61898;BME280;47850;50.274;18.908;2022-12-20T06:17:44;98915.75;;;-1.98;90.51
61898;BME280;47850;50.274;18.908;2022-12-20T06:20:10;98914.48;;;-1.98;90.56
61898;BME280;47850;50.274;18.908;2022-12-20T06:22:37;98914.90;;;-1.96;90.64
61898;BME280;47850;50.274;18.908;2022-12-20T06:25:03;98912.06;;;-1.95;90.74
61898;BME280;47850;50.274;18.908;2022-12-20T06:27:29;98913.90;;;-1.94;90.56
61898;BME280;47850;50.274;18.908;2022-12-20T06:29:55;98914.70;;;-1.95;90.56
61898;BME280;47850;50.274;18.908;2022-12-20T06:32:20;98905.77;;;-1.95;90.62
61898;BME280;47850;50.274;18.908;2022-12-20T06:34:46;98912.80;;;-1.95;90.47
61898;BME280;47850;50.274;18.908;2022-12-20T06:37:11;98914.58;;;-1.95;90.58
61898;BME280;47850;50.274;18.908;2022-12-20T06:39:37;98908.56;;;-1.96;90.73
61898;BME280;47850;50.274;18.908;2022-12-20T06:42:03;98904.71;;;-1.96;90.73
61898;BME280;47850;50.274;18.908;2022-12-20T06:44:29;98911.69;;;-1.95;90.65
61898;BME280;47850;50.274;18.908;2022-12-20T06:46:54;98913.48;;;-1.93;90.74
61898;BME280;47850;50.274;18.908;2022-12-20T06:49:19;98912.57;;;-1.92;90.88
61898;BME280;47850;50.274;18.908;2022-12-20T06:51:47;98920.53;;;-1.91;90.80
61898;BME280;47850;50.274;18.908;2022-12-20T06:54:12;98922.80;;;-1.89;90.66
61898;BME280;47850;50.274;18.908;2022-12-20T06:56:38;98916.63;;;-1.87;90.87
61898;BME280;47850;50.274;18.908;2022-12-20T06:59:04;98917.16;;;-1.86;90.70
61898;BME280;47850;50.274;18.908;2022-12-20T07:01:30;98921.52;;;-1.85;90.56
61898;BME280;47850;50.274;18.908;2022-12-20T07:03:56;98931.48;;;-1.82;90.71
61898;BME280;47850;50.274;18.908;2022-12-20T07:06:22;98940.96;;;-1.80;90.67
61898;BME280;47850;50.274;18.908;2022-12-20T07:08:47;98938.27;;;-1.78;90.33
61898;BME280;47850;50.274;18.908;2022-12-20T07:11:13;98932.89;;;-1.75;90.47
61898;BME280;47850;50.274;18.908;2022-12-20T07:13:38;98932.16;;;-1.71;90.31
61898;BME280;47850;50.274;18.908;2022-12-20T07:16:04;98925.99;;;-1.68;90.17
61898;BME280;47850;50.274;18.908;2022-12-20T07:18:30;98921.42;;;-1.63;89.97
61898;BME280;47850;50.274;18.908;2022-12-20T07:21:01;98922.15;;;-1.59;90.13
61898;BME280;47850;50.274;18.908;2022-12-20T07:23:27;98916.61;;;-1.54;89.72
61898;BME280;47850;50.274;18.908;2022-12-20T07:25:57;98919.33;;;-1.51;89.65
61898;BME280;47850;50.274;18.908;2022-12-20T07:28:24;98924.85;;;-1.47;89.52
61898;BME280;47850;50.274;18.908;2022-12-20T07:30:50;98921.44;;;-1.43;89.68
61898;BME280;47850;50.274;18.908;2022-12-20T07:33:16;98919.20;;;-1.39;89.18
61898;BME280;47850;50.274;18.908;2022-12-20T07:35:41;98915.67;;;-1.35;89.33
61898;BME280;47850;50.274;18.908;2022-12-20T07:38:08;98910.97;;;-1.31;89.03
61898;BME280;47850;50.274;18.908;2022-12-20T07:40:34;98915.73;;;-1.26;88.83
61898;BME280;47850;50.274;18.908;2022-12-20T07:42:59;98919.45;;;-1.21;88.92
61898;BME280;47850;50.274;18.908;2022-12-20T07:45:24;98915.98;;;-1.17;88.60
61898;BME280;47850;50.274;18.908;2022-12-20T07:47:50;98913.66;;;-1.12;88.24
61898;BME280;47850;50.274;18.908;2022-12-20T07:50:15;98916.73;;;-1.07;87.64
61898;BME280;47850;50.274;18.908;2022-12-20T07:52:43;98911.29;;;-1.03;87.81
61898;BME280;47850;50.274;18.908;2022-12-20T07:55:11;98917.85;;;-0.97;87.79
61898;BME280;47850;50.274;18.908;2022-12-20T07:57:48;98917.83;;;-0.92;87.53
61898;BME280;47850;50.274;18.908;2022-12-20T08:00:16;98917.91;;;-0.88;87.04
61898;BME280;47850;50.274;18.908;2022-12-20T08:03:04;98916.02;;;-0.82;87.15
61898;BME280;47850;50.274;18.908;2022-12-20T08:05:32;98917.56;;;-0.78;86.62
61898;BME280;47850;50.274;18.908;2022-12-20T08:08:00;98906.12;;;-0.73;86.63
61898;BME280;47850;50.274;18.908;2022-12-20T08:10:27;98911.06;;;-0.69;86.47
61898;BME280;47850;50.274;18.908;2022-12-20T08:12:53;98910.04;;;-0.63;86.40
61898;BME280;47850;50.274;18.908;2022-12-20T08:15:19;98903.69;;;-0.58;86.30
61898;BME280;47850;50.274;18.908;2022-12-20T08:17:47;98911.02;;;-0.54;85.82
61898;BME280;47850;50.274;18.908;2022-12-20T08:20:14;98910.66;;;-0.50;85.70
61898;BME280;47850;50.274;18.908;2022-12-20T08:22:39;98908.12;;;-0.44;85.55
61898;BME280;47850;50.274;18.908;2022-12-20T08:25:05;98908.64;;;-0.38;85.45
61898;BME280;47850;50.274;18.908;2022-12-20T08:27:31;98915.88;;;-0.32;85.15
61898;BME280;47850;50.274;18.908;2022-12-20T08:29:58;98915.29;;;-0.25;84.66
61898;BME280;47850;50.274;18.908;2022-12-20T08:32:23;98909.16;;;-0.17;84.12
61898;BME280;47850;50.274;18.908;2022-12-20T08:34:49;98912.28;;;-0.07;83.80
61898;BME280;47850;50.274;18.908;2022-12-20T08:37:16;98916.30;;;0.06;83.55
61898;BME280;47850;50.274;18.908;2022-12-20T08:39:41;98911.84;;;0.22;82.83
61898;BME280;47850;50.274;18.908;2022-12-20T08:42:07;98902.27;;;0.38;82.46
61898;BME280;47850;50.274;18.908;2022-12-20T08:44:32;98908.03;;;0.52;81.80
61898;BME280;47850;50.274;18.908;2022-12-20T08:46:58;98905.16;;;0.65;81.35
61898;BME280;47850;50.274;18.908;2022-12-20T08:49:23;98901.52;;;0.75;81.14
61898;BME280;47850;50.274;18.908;2022-12-20T08:51:49;98908.53;;;0.86;80.53
61898;BME280;47850;50.274;18.908;2022-12-20T08:54:14;98908.60;;;0.91;80.04
61898;BME280;47850;50.274;18.908;2022-12-20T08:56:42;98908.17;;;0.97;79.87
61898;BME280;47850;50.274;18.908;2022-12-20T08:59:07;98901.61;;;1.02;79.48
61898;BME280;47850;50.274;18.908;2022-12-20T09:01:33;98899.07;;;1.07;80.04
61898;BME280;47850;50.274;18.908;2022-12-20T09:03:58;98898.27;;;1.13;79.63
61898;BME280;47850;50.274;18.908;2022-12-20T09:06:24;98893.83;;;1.10;78.56
61898;BME280;47850;50.274;18.908;2022-12-20T09:08:50;98899.91;;;1.03;78.02
61898;BME280;47850;50.274;18.908;2022-12-20T09:11:22;98893.69;;;0.99;78.48
61898;BME280;47850;50.274;18.908;2022-12-20T09:13:50;98891.69;;;1.02;78.62
61898;BME280;47850;50.274;18.908;2022-12-20T09:16:17;98884.84;;;1.07;78.74
61898;BME280;47850;50.274;18.908;2022-12-20T09:18:48;98873.38;;;1.09;78.78
61898;BME280;47850;50.274;18.908;2022-12-20T09:21:14;98867.66;;;1.10;78.41
61898;BME280;47850;50.274;18.908;2022-12-20T09:23:39;98872.13;;;1.08;77.90
61898;BME280;47850;50.274;18.908;2022-12-20T09:26:08;98876.06;;;1.03;77.76
61898;BME280;47850;50.274;18.908;2022-12-20T09:28:34;98880.45;;;1.00;77.60
61898;BME280;47850;50.274;18.908;2022-12-20T09:31:01;98891.77;;;1.02;77.70
61898;BME280;47850;50.274;18.908;2022-12-20T09:33:28;98889.70;;;1.08;77.67
61898;BME280;47850;50.274;18.908;2022-12-20T09:35:55;98884.79;;;1.16;77.33
61898;BME280;47850;50.274;18.908;2022-12-20T09:38:21;98876.17;;;1.24;77.17
61898;BME280;47850;50.274;18.908;2022-12-20T09:40:49;98871.52;;;1.36;77.14
61898;BME280;47850;50.274;18.908;2022-12-20T09:43:16;98868.89;;;1.47;75.94
61898;BME280;47850;50.274;18.908;2022-12-20T09:45:43;98863.27;;;1.54;75.66
61898;BME280;47850;50.274;18.908;2022-12-20T09:48:24;98843.23;;;1.66;75.34
61898;BME280;47850;50.274;18.908;2022-12-20T09:56:32;98825.04;;;1.86;74.14
61898;BME280;47850;50.274;18.908;2022-12-20T09:59:05;98819.69;;;1.83;73.69
61898;BME280;47850;50.274;18.908;2022-12-20T10:01:34;98817.56;;;1.86;73.57
61898;BME280;47850;50.274;18.908;2022-12-20T10:04:06;98824.45;;;1.93;73.90
61898;BME280;47850;50.274;18.908;2022-12-20T10:18:16;98853.19;;;1.69;73.52
61898;BME280;47850;50.274;18.908;2022-12-20T10:25:53;98839.58;;;1.39;73.84
61898;BME280;47850;50.274;18.908;2022-12-20T10:28:33;98826.25;;;1.29;74.61
61898;BME280;47850;50.274;18.908;2022-12-20T10:31:25;98823.23;;;1.23;74.91
61898;BME280;47850;50.274;18.908;2022-12-20T10:33:51;98815.96;;;1.18;75.30
61898;BME280;47850;50.274;18.908;2022-12-20T10:38:49;98806.11;;;1.15;75.53
61898;BME280;47850;50.274;18.908;2022-12-20T10:41:20;98801.88;;;1.18;75.66
61898;BME280;47850;50.274;18.908;2022-12-20T10:43:53;98803.38;;;1.19;75.22
61898;BME280;47850;50.274;18.908;2022-12-20T10:46:20;98804.73;;;1.21;75.39
61898;BME280;47850;50.274;18.908;2022-12-20T10:48:47;98800.53;;;1.25;75.30
61898;BME280;47850;50.274;18.908;2022-12-20T10:56:27;98796.10;;;1.36;74.96
61898;BME280;47850;50.274;18.908;2022-12-20T10:59:25;98782.02;;;1.43;74.97
61898;BME280;47850;50.274;18.908;2022-12-20T11:01:53;98777.21;;;1.41;74.36
61898;BME280;47850;50.274;18.908;2022-12-20T11:06:50;98775.19;;;1.53;74.59
61898;BME280;47850;50.274;18.908;2022-12-20T11:09:31;98775.74;;;1.62;74.29
61898;BME280;47850;50.274;18.908;2022-12-20T11:14:22;98759.31;;;1.89;74.10
61898;BME280;47850;50.274;18.908;2022-12-20T11:16:50;98755.48;;;2.00;72.70
61898;BME280;47850;50.274;18.908;2022-12-20T11:30:23;98745.11;;;3.05;69.01
61898;BME280;47850;50.274;18.908;2022-12-20T11:35:41;98731.25;;;3.51;68.33
61898;BME280;47850;50.274;18.908;2022-12-20T11:38:28;98727.91;;;3.78;66.07
61898;BME280;47850;50.274;18.908;2022-12-20T11:46:46;98720.92;;;3.74;65.71
61898;BME280;47850;50.274;18.908;2022-12-20T11:49:29;98718.80;;;3.68;65.78
61898;BME280;47850;50.274;18.908;2022-12-20T11:52:31;98729.52;;;3.65;65.84
61898;BME280;47850;50.274;18.908;2022-12-20T11:55:06;98740.31;;;3.36;65.78
61898;BME280;47850;50.274;18.908;2022-12-20T11:57:56;98737.73;;;3.05;66.79
61898;BME280;47850;50.274;18.908;2022-12-20T12:00:24;98729.52;;;2.84;67.96
61898;BME280;47850;50.274;18.908;2022-12-20T12:03:44;98730.21;;;2.67;68.26
61898;BME280;47850;50.274;18.908;2022-12-20T12:05:55;98722.25;;;2.44;68.92
61898;BME280;47850;50.274;18.908;2022-12-20T12:08:33;98730.06;;;2.29;69.54
61898;BME280;47850;50.274;18.908;2022-12-20T12:11:11;98726.81;;;2.18;70.14
61898;BME280;47850;50.274;18.908;2022-12-20T12:13:39;98729.02;;;2.13;71.03
61898;BME280;47850;50.274;18.908;2022-12-20T12:16:24;98729.40;;;2.10;70.62
61898;BME280;47850;50.274;18.908;2022-12-20T12:18:51;98720.73;;;2.01;70.94
61898;BME280;47850;50.274;18.908;2022-12-20T12:21:25;98715.66;;;1.96;71.19
61898;BME280;47850;50.274;18.908;2022-12-20T12:24:04;98720.42;;;1.90;71.45
61898;BME280;47850;50.274;18.908;2022-12-20T12:26:37;98709.48;;;1.83;72.01
61898;BME280;47850;50.274;18.908;2022-12-20T12:29:09;98711.52;;;1.75;72.24
61898;BME280;47850;50.274;18.908;2022-12-20T12:31:56;98716.94;;;1.67;72.39
61898;BME280;47850;50.274;18.908;2022-12-20T12:45:21;98694.11;;;1.30;74.09
61898;BME280;47850;50.274;18.908;2022-12-20T12:47:57;98695.52;;;1.28;74.28
61898;BME280;47850;50.274;18.908;2022-12-20T12:50:26;98688.18;;;1.26;74.45
61898;BME280;47850;50.274;18.908;2022-12-20T12:52:54;98688.07;;;1.22;74.57
61898;BME280;47850;50.274;18.908;2022-12-20T12:55:53;98681.61;;;1.17;74.90
61898;BME280;47850;50.274;18.908;2022-12-20T13:01:01;98678.26;;;1.12;75.08
61898;BME280;47850;50.274;18.908;2022-12-20T13:11:37;98685.48;;;1.22;75.08
61898;BME280;47850;50.274;18.908;2022-12-20T13:14:45;98683.90;;;1.20;74.98
61898;BME280;47850;50.274;18.908;2022-12-20T13:19:33;98668.27;;;1.10;75.84
61898;BME280;47850;50.274;18.908;2022-12-20T13:24:35;98683.20;;;1.06;76.07
61898;BME280;47850;50.274;18.908;2022-12-20T13:27:03;98681.73;;;1.07;76.26
61898;BME280;47850;50.274;18.908;2022-12-20T13:29:54;98682.93;;;1.09;76.29
61898;BME280;47850;50.274;18.908;2022-12-20T13:32:47;98687.05;;;1.04;76.11
61898;BME280;47850;50.274;18.908;2022-12-20T13:40:47;98685.97;;;0.87;77.01
61898;BME280;47850;50.274;18.908;2022-12-20T13:45:46;98695.75;;;0.78;77.65
61898;BME280;47850;50.274;18.908;2022-12-20T13:48:24;98690.51;;;0.76;77.81
61898;BME280;47850;50.274;18.908;2022-12-20T13:50:52;98695.36;;;0.74;77.63
61898;BME280;47850;50.274;18.908;2022-12-20T13:53:20;98693.60;;;0.72;78.03
61898;BME280;47850;50.274;18.908;2022-12-20T13:55:47;98696.84;;;0.67;78.18
61898;BME280;47850;50.274;18.908;2022-12-20T13:58:24;98694.02;;;0.63;78.41
61898;BME280;47850;50.274;18.908;2022-12-20T14:00:50;98693.97;;;0.68;78.16
61898;BME280;47850;50.274;18.908;2022-12-20T14:03:23;98689.26;;;0.66;78.10
61898;BME280;47850;50.274;18.908;2022-12-20T14:05:55;98694.66;;;0.61;78.24
61898;BME280;47850;50.274;18.908;2022-12-20T14:08:25;98689.98;;;0.58;78.25
61898;BME280;47850;50.274;18.908;2022-12-20T14:10:52;98694.88;;;0.53;78.20
61898;BME280;47850;50.274;18.908;2022-12-20T14:13:26;98685.73;;;0.46;78.26
61898;BME280;47850;50.274;18.908;2022-12-20T14:15:52;98688.13;;;0.39;78.67
61898;BME280;47850;50.274;18.908;2022-12-20T14:18:20;98684.95;;;0.32;79.16
61898;BME280;47850;50.274;18.908;2022-12-20T14:21:07;98682.98;;;0.25;79.42
61898;BME280;47850;50.274;18.908;2022-12-20T14:23:43;98679.82;;;0.20;79.58
61898;BME280;47850;50.274;18.908;2022-12-20T14:26:21;98682.08;;;0.14;80.02
61898;BME280;47850;50.274;18.908;2022-12-20T14:28:49;98690.13;;;0.09;80.46
61898;BME280;47850;50.274;18.908;2022-12-20T14:31:31;98690.25;;;0.04;80.46
61898;BME280;47850;50.274;18.908;2022-12-20T14:34:14;98691.69;;;0.01;80.78
61898;BME280;47850;50.274;18.908;2022-12-20T14:36:46;98688.08;;;-0.03;80.94
61898;BME280;47850;50.274;18.908;2022-12-20T14:39:27;98685.77;;;-0.05;81.23
61898;BME280;47850;50.274;18.908;2022-12-20T14:44:32;98685.60;;;-0.11;81.61
61898;BME280;47850;50.274;18.908;2022-12-20T14:47:14;98680.27;;;-0.14;82.10
61898;BME280;47850;50.274;18.908;2022-12-20T14:49:47;98674.50;;;-0.19;82.19
61898;BME280;47850;50.274;18.908;2022-12-20T14:52:24;98670.43;;;-0.22;82.56
61898;BME280;47850;50.274;18.908;2022-12-20T15:02:49;98650.88;;;-0.31;83.33
61898;BME280;47850;50.274;18.908;2022-12-20T15:08:16;98649.86;;;-0.37;83.37